sensor_id;sensor_type;location;lat;lon;timestamp;P1;durP1;ratioP1;P2;durP2;ratioP2
23804;SDS011;12083;52.098;7.582;2022-07-06T00:01:30;9.80;;;1.70;;
23804;SDS011;12083;52.098;7.582;2022-07-06T00:03:55;1.33;;;1.23;;
23804;SDS011;12083;52.098;7.582;2022-07-06T00:06:22;7.00;;;1.30;;
23804;SDS011;12083;52.098;7.582;2022-07-06T00:08:48;2.20;;;1.73;;
23804;SDS011;12083;52.098;7.582;2022-07-06T00:11:14;3.93;;;1.20;;
23804;SDS011;12083;52.098;7.582;2022-07-06T00:13:40;5.27;;;1.40;;
23804;SDS011;12083;52.098;7.582;2022-07-06T00:16:06;1.40;;;0.80;;
23804;SDS011;12083;52.098;7.582;2022-07-06T00:18:31;5.90;;;1.40;;
23804;SDS011;12083;52.098;7.582;2022-07-06T00:20:57;5.73;;;1.27;;
23804;SDS011;12083;52.098;7.582;2022-07-06T00:23:23;8.17;;;2.30;;
23804;SDS011;12083;52.098;7.582;2022-07-06T00:25:49;3.33;;;1.40;;
23804;SDS011;12083;52.098;7.582;2022-07-06T00:28:15;4.10;;;1.90;;
23804;SDS011;12083;52.098;7.582;2022-07-06T00:30:41;2.37;;;1.30;;
23804;SDS011;12083;52.098;7.582;2022-07-06T00:33:07;3.03;;;1.57;;
23804;SDS011;12083;52.098;7.582;2022-07-06T00:35:33;4.73;;;1.80;;
23804;SDS011;12083;52.098;7.582;2022-07-06T00:37:59;4.33;;;1.20;;
23804;SDS011;12083;52.098;7.582;2022-07-06T00:40:25;5.67;;;1.80;;
23804;SDS011;12083;52.098;7.582;2022-07-06T00:42:51;1.90;;;1.40;;
23804;SDS011;12083;52.098;7.582;2022-07-06T00:45:17;9.03;;;1.60;;
23804;SDS011;12083;52.098;7.582;2022-07-06T00:47:43;1.83;;;1.37;;
23804;SDS011;12083;52.098;7.582;2022-07-06T00:50:10;4.47;;;1.40;;
23804;SDS011;12083;52.098;7.582;2022-07-06T00:52:41;5.40;;;1.60;;
23804;SDS011;12083;52.098;7.582;2022-07-06T00:55:11;1.90;;;1.60;;
23804;SDS011;12083;52.098;7.582;2022-07-06T00:57:38;9.40;;;2.20;;
23804;SDS011;12083;52.098;7.582;2022-07-06T01:00:05;2.27;;;1.30;;
23804;SDS011;12083;52.098;7.582;2022-07-06T01:02:34;4.03;;;1.53;;
23804;SDS011;12083;52.098;7.582;2022-07-06T01:05:01;5.97;;;2.20;;
23804;SDS011;12083;52.098;7.582;2022-07-06T01:07:28;3.60;;;1.60;;
23804;SDS011;12083;52.098;7.582;2022-07-06T01:09:54;4.37;;;1.80;;
23804;SDS011;12083;52.098;7.582;2022-07-06T01:12:20;7.30;;;1.57;;
23804;SDS011;12083;52.098;7.582;2022-07-06T01:14:46;2.47;;;1.93;;
23804;SDS011;12083;52.098;7.582;2022-07-06T01:17:13;2.87;;;1.70;;
23804;SDS011;12083;52.098;7.582;2022-07-06T01:19:40;5.40;;;2.17;;
23804;SDS011;12083;52.098;7.582;2022-07-06T01:22:06;5.60;;;2.07;;
23804;SDS011;12083;52.098;7.582;2022-07-06T01:24:34;6.10;;;2.50;;
23804;SDS011;12083;52.098;7.582;2022-07-06T01:27:00;7.70;;;1.83;;
23804;SDS011;12083;52.098;7.582;2022-07-06T01:29:26;3.30;;;2.23;;
23804;SDS011;12083;52.098;7.582;2022-07-06T01:31:51;6.90;;;2.30;;
23804;SDS011;12083;52.098;7.582;2022-07-06T01:34:18;10.27;;;2.27;;
23804;SDS011;12083;52.098;7.582;2022-07-06T01:36:44;8.73;;;2.50;;
23804;SDS011;12083;52.098;7.582;2022-07-06T01:39:10;5.80;;;2.03;;
23804;SDS011;12083;52.098;7.582;2022-07-06T01:41:36;6.27;;;2.10;;
23804;SDS011;12083;52.098;7.582;2022-07-06T01:44:03;6.87;;;2.23;;
23804;SDS011;12083;52.098;7.582;2022-07-06T01:46:29;3.73;;;2.27;;
23804;SDS011;12083;52.098;7.582;2022-07-06T01:48:55;1.70;;;1.60;;
23804;SDS011;12083;52.098;7.582;2022-07-06T01:51:22;7.43;;;1.90;;
23804;SDS011;12083;52.098;7.582;2022-07-06T01:53:48;6.30;;;2.20;;
23804;SDS011;12083;52.098;7.582;2022-07-06T01:56:17;10.70;;;2.43;;
23804;SDS011;12083;52.098;7.582;2022-07-06T01:58:46;5.13;;;2.27;;
23804;SDS011;12083;52.098;7.582;2022-07-06T02:01:14;5.30;;;1.97;;
23804;SDS011;12083;52.098;7.582;2022-07-06T02:03:41;4.30;;;2.27;;
23804;SDS011;12083;52.098;7.582;2022-07-06T02:06:08;5.73;;;2.70;;
23804;SDS011;12083;52.098;7.582;2022-07-06T02:08:35;3.67;;;2.27;;
23804;SDS011;12083;52.098;7.582;2022-07-06T02:11:08;5.43;;;2.43;;
23804;SDS011;12083;52.098;7.582;2022-07-06T02:13:37;9.90;;;2.93;;
23804;SDS011;12083;52.098;7.582;2022-07-06T02:16:05;6.00;;;2.20;;
23804;SDS011;12083;52.098;7.582;2022-07-06T02:18:31;2.70;;;2.30;;
23804;SDS011;12083;52.098;7.582;2022-07-06T02:20:59;5.13;;;2.10;;
23804;SDS011;12083;52.098;7.582;2022-07-06T02:23:26;2.30;;;1.80;;
23804;SDS011;12083;52.098;7.582;2022-07-06T02:25:52;5.20;;;2.40;;
23804;SDS011;12083;52.098;7.582;2022-07-06T02:28:18;9.90;;;2.73;;
23804;SDS011;12083;52.098;7.582;2022-07-06T02:30:44;3.20;;;1.90;;
23804;SDS011;12083;52.098;7.582;2022-07-06T02:33:11;4.90;;;2.60;;
23804;SDS011;12083;52.098;7.582;2022-07-06T02:35:37;6.93;;;2.67;;
23804;SDS011;12083;52.098;7.582;2022-07-06T02:38:08;2.93;;;2.30;;
23804;SDS011;12083;52.098;7.582;2022-07-06T02:40:36;6.23;;;2.63;;
23804;SDS011;12083;52.098;7.582;2022-07-06T02:43:04;3.93;;;2.60;;
23804;SDS011;12083;52.098;7.582;2022-07-06T02:45:30;3.90;;;2.47;;
23804;SDS011;12083;52.098;7.582;2022-07-06T02:47:55;4.33;;;1.90;;
23804;SDS011;12083;52.098;7.582;2022-07-06T02:50:23;5.67;;;2.90;;
23804;SDS011;12083;52.098;7.582;2022-07-06T02:52:50;3.50;;;2.40;;
23804;SDS011;12083;52.098;7.582;2022-07-06T02:55:16;7.60;;;2.47;;
23804;SDS011;12083;52.098;7.582;2022-07-06T02:57:41;4.43;;;2.20;;
23804;SDS011;12083;52.098;7.582;2022-07-06T03:00:07;4.73;;;3.53;;
23804;SDS011;12083;52.098;7.582;2022-07-06T03:02:35;6.27;;;2.53;;
23804;SDS011;12083;52.098;7.582;2022-07-06T03:05:01;8.00;;;2.33;;
23804;SDS011;12083;52.098;7.582;2022-07-06T03:07:28;2.93;;;2.20;;
23804;SDS011;12083;52.098;7.582;2022-07-06T03:09:54;8.43;;;2.77;;
23804;SDS011;12083;52.098;7.582;2022-07-06T03:12:19;5.80;;;2.90;;
23804;SDS011;12083;52.098;7.582;2022-07-06T03:14:45;16.53;;;3.90;;
23804;SDS011;12083;52.098;7.582;2022-07-06T03:17:11;5.13;;;2.47;;
23804;SDS011;12083;52.098;7.582;2022-07-06T03:19:38;9.60;;;3.43;;
23804;SDS011;12083;52.098;7.582;2022-07-06T03:22:03;9.50;;;3.50;;
23804;SDS011;12083;52.098;7.582;2022-07-06T03:24:29;7.27;;;3.70;;
23804;SDS011;12083;52.098;7.582;2022-07-06T03:26:55;12.07;;;3.87;;
23804;SDS011;12083;52.098;7.582;2022-07-06T03:29:21;6.67;;;2.93;;
23804;SDS011;12083;52.098;7.582;2022-07-06T03:31:47;4.87;;;2.50;;
23804;SDS011;12083;52.098;7.582;2022-07-06T03:34:13;7.20;;;2.37;;
23804;SDS011;12083;52.098;7.582;2022-07-06T03:36:39;8.33;;;2.77;;
23804;SDS011;12083;52.098;7.582;2022-07-06T03:39:06;4.37;;;2.80;;
23804;SDS011;12083;52.098;7.582;2022-07-06T03:41:34;6.40;;;3.07;;
23804;SDS011;12083;52.098;7.582;2022-07-06T03:44:00;13.30;;;2.83;;
23804;SDS011;12083;52.098;7.582;2022-07-06T03:46:26;4.50;;;2.80;;
23804;SDS011;12083;52.098;7.582;2022-07-06T03:48:53;4.63;;;2.77;;
23804;SDS011;12083;52.098;7.582;2022-07-06T03:51:18;6.33;;;2.97;;
23804;SDS011;12083;52.098;7.582;2022-07-06T03:53:44;7.10;;;3.70;;
23804;SDS011;12083;52.098;7.582;2022-07-06T03:56:10;9.13;;;2.53;;
23804;SDS011;12083;52.098;7.582;2022-07-06T03:59:00;6.80;;;3.10;;
23804;SDS011;12083;52.098;7.582;2022-07-06T04:01:30;6.37;;;2.87;;
23804;SDS011;12083;52.098;7.582;2022-07-06T04:03:57;13.00;;;2.47;;
23804;SDS011;12083;52.098;7.582;2022-07-06T04:06:23;6.10;;;3.27;;
23804;SDS011;12083;52.098;7.582;2022-07-06T04:08:50;4.73;;;3.27;;
23804;SDS011;12083;52.098;7.582;2022-07-06T04:11:15;3.00;;;2.53;;
23804;SDS011;12083;52.098;7.582;2022-07-06T04:13:41;5.00;;;2.73;;
23804;SDS011;12083;52.098;7.582;2022-07-06T05:16:40;4.70;;;2.70;;
23804;SDS011;12083;52.098;7.582;2022-07-06T05:19:07;9.60;;;3.30;;
23804;SDS011;12083;52.098;7.582;2022-07-06T05:21:33;11.03;;;3.10;;
23804;SDS011;12083;52.098;7.582;2022-07-06T05:23:59;5.27;;;3.23;;
23804;SDS011;12083;52.098;7.582;2022-07-06T05:26:25;3.83;;;2.70;;
23804;SDS011;12083;52.098;7.582;2022-07-06T05:28:51;8.47;;;3.27;;
23804;SDS011;12083;52.098;7.582;2022-07-06T05:31:19;8.57;;;3.20;;
23804;SDS011;12083;52.098;7.582;2022-07-06T05:33:45;10.97;;;3.17;;
23804;SDS011;12083;52.098;7.582;2022-07-06T05:36:11;10.10;;;4.00;;
23804;SDS011;12083;52.098;7.582;2022-07-06T05:38:38;7.53;;;3.10;;
23804;SDS011;12083;52.098;7.582;2022-07-06T05:41:04;3.03;;;2.40;;
23804;SDS011;12083;52.098;7.582;2022-07-06T05:43:32;8.43;;;2.57;;
23804;SDS011;12083;52.098;7.582;2022-07-06T05:46:00;3.67;;;2.07;;
23804;SDS011;12083;52.098;7.582;2022-07-06T05:48:29;9.10;;;2.77;;
23804;SDS011;12083;52.098;7.582;2022-07-06T05:51:13;11.43;;;3.13;;
23804;SDS011;12083;52.098;7.582;2022-07-06T05:53:41;9.37;;;2.40;;
23804;SDS011;12083;52.098;7.582;2022-07-06T05:56:06;8.17;;;1.93;;
23804;SDS011;12083;52.098;7.582;2022-07-06T05:58:33;9.73;;;1.97;;
23804;SDS011;12083;52.098;7.582;2022-07-06T06:01:00;3.97;;;1.57;;
23804;SDS011;12083;52.098;7.582;2022-07-06T06:03:26;5.93;;;2.20;;
23804;SDS011;12083;52.098;7.582;2022-07-06T06:05:51;6.40;;;3.23;;
23804;SDS011;12083;52.098;7.582;2022-07-06T06:08:20;10.13;;;2.57;;
23804;SDS011;12083;52.098;7.582;2022-07-06T06:10:46;6.13;;;2.40;;
23804;SDS011;12083;52.098;7.582;2022-07-06T06:13:14;2.40;;;2.00;;
23804;SDS011;12083;52.098;7.582;2022-07-06T06:15:40;5.77;;;2.40;;
23804;SDS011;12083;52.098;7.582;2022-07-06T06:18:06;5.17;;;1.70;;
23804;SDS011;12083;52.098;7.582;2022-07-06T06:20:32;4.70;;;1.57;;
23804;SDS011;12083;52.098;7.582;2022-07-06T06:22:58;9.93;;;2.20;;
23804;SDS011;12083;52.098;7.582;2022-07-06T06:25:29;7.33;;;2.30;;
23804;SDS011;12083;52.098;7.582;2022-07-06T06:27:59;16.73;;;2.27;;
23804;SDS011;12083;52.098;7.582;2022-07-06T06:30:26;4.47;;;2.50;;
23804;SDS011;12083;52.098;7.582;2022-07-06T06:33:04;6.00;;;1.77;;
23804;SDS011;12083;52.098;7.582;2022-07-06T06:35:32;7.53;;;2.20;;
23804;SDS011;12083;52.098;7.582;2022-07-06T06:37:58;9.27;;;2.00;;
23804;SDS011;12083;52.098;7.582;2022-07-06T06:40:24;3.43;;;1.27;;
23804;SDS011;12083;52.098;7.582;2022-07-06T06:42:49;2.50;;;1.80;;
23804;SDS011;12083;52.098;7.582;2022-07-06T06:45:16;4.63;;;2.03;;
23804;SDS011;12083;52.098;7.582;2022-07-06T06:47:41;3.00;;;1.10;;
23804;SDS011;12083;52.098;7.582;2022-07-06T06:50:07;3.03;;;1.40;;
23804;SDS011;12083;52.098;7.582;2022-07-06T06:52:33;4.10;;;1.57;;
23804;SDS011;12083;52.098;7.582;2022-07-06T06:54:59;6.63;;;1.57;;
23804;SDS011;12083;52.098;7.582;2022-07-06T06:57:25;4.43;;;1.37;;
23804;SDS011;12083;52.098;7.582;2022-07-06T06:59:51;13.13;;;1.90;;
23804;SDS011;12083;52.098;7.582;2022-07-06T07:02:16;10.00;;;1.80;;
23804;SDS011;12083;52.098;7.582;2022-07-06T07:04:42;3.60;;;1.50;;
23804;SDS011;12083;52.098;7.582;2022-07-06T07:07:08;5.17;;;1.60;;
23804;SDS011;12083;52.098;7.582;2022-07-06T07:09:33;10.77;;;1.20;;
23804;SDS011;12083;52.098;7.582;2022-07-06T07:11:59;2.67;;;1.40;;
23804;SDS011;12083;52.098;7.582;2022-07-06T07:14:25;7.47;;;1.57;;
23804;SDS011;12083;52.098;7.582;2022-07-06T07:16:50;6.63;;;1.57;;
23804;SDS011;12083;52.098;7.582;2022-07-06T07:19:16;11.07;;;1.43;;
23804;SDS011;12083;52.098;7.582;2022-07-06T07:21:42;5.57;;;1.30;;
23804;SDS011;12083;52.098;7.582;2022-07-06T07:24:07;6.40;;;1.90;;
23804;SDS011;12083;52.098;7.582;2022-07-06T07:26:33;3.77;;;1.20;;
23804;SDS011;12083;52.098;7.582;2022-07-06T07:28:59;15.83;;;1.47;;
23804;SDS011;12083;52.098;7.582;2022-07-06T07:31:24;7.23;;;0.90;;
23804;SDS011;12083;52.098;7.582;2022-07-06T07:33:50;2.60;;;1.50;;
23804;SDS011;12083;52.098;7.582;2022-07-06T07:36:16;13.63;;;1.70;;
23804;SDS011;12083;52.098;7.582;2022-07-06T07:38:41;3.73;;;1.10;;
23804;SDS011;12083;52.098;7.582;2022-07-06T07:41:07;4.73;;;1.23;;
23804;SDS011;12083;52.098;7.582;2022-07-06T07:43:33;2.97;;;1.20;;
23804;SDS011;12083;52.098;7.582;2022-07-06T07:45:58;11.93;;;1.23;;
23804;SDS011;12083;52.098;7.582;2022-07-06T07:48:24;8.47;;;1.00;;
23804;SDS011;12083;52.098;7.582;2022-07-06T07:50:50;8.10;;;1.33;;
23804;SDS011;12083;52.098;7.582;2022-07-06T07:53:15;3.20;;;1.43;;
23804;SDS011;12083;52.098;7.582;2022-07-06T07:55:41;4.20;;;1.53;;
23804;SDS011;12083;52.098;7.582;2022-07-06T07:58:07;3.80;;;1.00;;
23804;SDS011;12083;52.098;7.582;2022-07-06T08:00:33;7.13;;;1.70;;
23804;SDS011;12083;52.098;7.582;2022-07-06T08:02:59;3.67;;;1.20;;
23804;SDS011;12083;52.098;7.582;2022-07-06T08:05:24;4.50;;;1.10;;
23804;SDS011;12083;52.098;7.582;2022-07-06T08:07:50;6.17;;;0.97;;
23804;SDS011;12083;52.098;7.582;2022-07-06T08:10:15;1.27;;;0.80;;
23804;SDS011;12083;52.098;7.582;2022-07-06T08:12:41;5.80;;;0.90;;
23804;SDS011;12083;52.098;7.582;2022-07-06T08:15:07;11.27;;;0.93;;
23804;SDS011;12083;52.098;7.582;2022-07-06T08:17:33;2.20;;;0.67;;
23804;SDS011;12083;52.098;7.582;2022-07-06T08:19:58;7.20;;;1.70;;
23804;SDS011;12083;52.098;7.582;2022-07-06T08:22:24;1.63;;;1.03;;
23804;SDS011;12083;52.098;7.582;2022-07-06T08:24:50;6.17;;;1.47;;
23804;SDS011;12083;52.098;7.582;2022-07-06T08:27:16;8.67;;;1.27;;
23804;SDS011;12083;52.098;7.582;2022-07-06T08:29:42;6.33;;;1.10;;
23804;SDS011;12083;52.098;7.582;2022-07-06T08:32:07;5.43;;;1.10;;
23804;SDS011;12083;52.098;7.582;2022-07-06T08:34:33;8.90;;;1.10;;
23804;SDS011;12083;52.098;7.582;2022-07-06T08:36:58;7.47;;;1.37;;
23804;SDS011;12083;52.098;7.582;2022-07-06T08:39:24;3.03;;;0.80;;
23804;SDS011;12083;52.098;7.582;2022-07-06T08:41:50;11.30;;;1.43;;
23804;SDS011;12083;52.098;7.582;2022-07-06T08:44:16;1.80;;;0.80;;
23804;SDS011;12083;52.098;7.582;2022-07-06T08:46:43;2.10;;;0.87;;
23804;SDS011;12083;52.098;7.582;2022-07-06T08:49:13;3.30;;;0.80;;
23804;SDS011;12083;52.098;7.582;2022-07-06T08:51:41;7.40;;;1.90;;
23804;SDS011;12083;52.098;7.582;2022-07-06T08:54:08;9.37;;;1.20;;
23804;SDS011;12083;52.098;7.582;2022-07-06T08:56:35;4.00;;;0.80;;
23804;SDS011;12083;52.098;7.582;2022-07-06T08:59:01;4.53;;;1.27;;
23804;SDS011;12083;52.098;7.582;2022-07-06T09:01:27;5.77;;;1.10;;
23804;SDS011;12083;52.098;7.582;2022-07-06T09:03:54;1.90;;;1.03;;
23804;SDS011;12083;52.098;7.582;2022-07-06T09:06:24;3.90;;;1.20;;
23804;SDS011;12083;52.098;7.582;2022-07-06T09:08:52;5.43;;;1.00;;
23804;SDS011;12083;52.098;7.582;2022-07-06T09:11:20;5.67;;;1.13;;
23804;SDS011;12083;52.098;7.582;2022-07-06T09:13:46;7.33;;;1.00;;
23804;SDS011;12083;52.098;7.582;2022-07-06T09:16:13;1.80;;;0.73;;
23804;SDS011;12083;52.098;7.582;2022-07-06T09:18:43;2.60;;;1.03;;
23804;SDS011;12083;52.098;7.582;2022-07-06T09:21:10;1.80;;;0.73;;
23804;SDS011;12083;52.098;7.582;2022-07-06T09:23:37;4.80;;;1.00;;
23804;SDS011;12083;52.098;7.582;2022-07-06T09:26:06;4.13;;;1.17;;
23804;SDS011;12083;52.098;7.582;2022-07-06T09:28:44;3.70;;;0.80;;
23804;SDS011;12083;52.098;7.582;2022-07-06T09:31:10;2.97;;;1.17;;
23804;SDS011;12083;52.098;7.582;2022-07-06T09:33:37;4.57;;;0.90;;
23804;SDS011;12083;52.098;7.582;2022-07-06T09:36:03;4.53;;;0.80;;
23804;SDS011;12083;52.098;7.582;2022-07-06T09:38:31;6.50;;;1.87;;
23804;SDS011;12083;52.098;7.582;2022-07-06T09:40:57;4.50;;;0.90;;
23804;SDS011;12083;52.098;7.582;2022-07-06T09:43:23;5.43;;;1.43;;
23804;SDS011;12083;52.098;7.582;2022-07-06T09:45:53;7.10;;;0.93;;
23804;SDS011;12083;52.098;7.582;2022-07-06T09:48:21;3.43;;;0.70;;
23804;SDS011;12083;52.098;7.582;2022-07-06T09:53:16;2.07;;;0.90;;
23804;SDS011;12083;52.098;7.582;2022-07-06T09:55:49;5.80;;;1.20;;
23804;SDS011;12083;52.098;7.582;2022-07-06T09:58:16;7.63;;;0.90;;
23804;SDS011;12083;52.098;7.582;2022-07-06T10:00:43;4.33;;;1.03;;
23804;SDS011;12083;52.098;7.582;2022-07-06T10:03:11;12.20;;;1.00;;
23804;SDS011;12083;52.098;7.582;2022-07-06T10:05:38;2.10;;;0.80;;
23804;SDS011;12083;52.098;7.582;2022-07-06T10:08:06;1.00;;;0.90;;
23804;SDS011;12083;52.098;7.582;2022-07-06T10:10:34;1.10;;;0.70;;
23804;SDS011;12083;52.098;7.582;2022-07-06T10:13:02;1.27;;;0.80;;
23804;SDS011;12083;52.098;7.582;2022-07-06T10:15:29;7.60;;;1.03;;
23804;SDS011;12083;52.098;7.582;2022-07-06T10:17:59;4.13;;;1.10;;
23804;SDS011;12083;52.098;7.582;2022-07-06T10:20:27;4.43;;;1.50;;
23804;SDS011;12083;52.098;7.582;2022-07-06T10:22:54;4.27;;;1.10;;
23804;SDS011;12083;52.098;7.582;2022-07-06T10:25:22;3.53;;;1.00;;
23804;SDS011;12083;52.098;7.582;2022-07-06T10:27:48;1.70;;;0.90;;
23804;SDS011;12083;52.098;7.582;2022-07-06T10:30:14;3.83;;;1.43;;
23804;SDS011;12083;52.098;7.582;2022-07-06T10:32:42;6.40;;;1.00;;
23804;SDS011;12083;52.098;7.582;2022-07-06T10:35:09;2.30;;;0.90;;
23804;SDS011;12083;52.098;7.582;2022-07-06T10:37:35;1.80;;;0.73;;
23804;SDS011;12083;52.098;7.582;2022-07-06T10:40:02;1.10;;;0.67;;
23804;SDS011;12083;52.098;7.582;2022-07-06T10:42:49;2.20;;;0.80;;
23804;SDS011;12083;52.098;7.582;2022-07-06T10:50:37;1.73;;;1.00;;
23804;SDS011;12083;52.098;7.582;2022-07-06T10:53:09;2.20;;;0.80;;
23804;SDS011;12083;52.098;7.582;2022-07-06T10:55:37;5.10;;;0.90;;
23804;SDS011;12083;52.098;7.582;2022-07-06T10:58:04;2.93;;;0.90;;
23804;SDS011;12083;52.098;7.582;2022-07-06T11:06:39;8.60;;;0.80;;
23804;SDS011;12083;52.098;7.582;2022-07-06T11:08:50;4.70;;;0.93;;
23804;SDS011;12083;52.098;7.582;2022-07-06T11:19:17;2.03;;;0.80;;
23804;SDS011;12083;52.098;7.582;2022-07-06T11:21:45;3.30;;;0.80;;
23804;SDS011;12083;52.098;7.582;2022-07-06T11:24:14;3.47;;;0.90;;
23804;SDS011;12083;52.098;7.582;2022-07-06T11:26:48;6.70;;;1.00;;
23804;SDS011;12083;52.098;7.582;2022-07-06T11:29:15;1.20;;;0.60;;
23804;SDS011;12083;52.098;7.582;2022-07-06T11:31:43;2.10;;;0.80;;
23804;SDS011;12083;52.098;7.582;2022-07-06T11:34:13;1.43;;;0.80;;
23804;SDS011;12083;52.098;7.582;2022-07-06T11:36:43;7.83;;;0.77;;
23804;SDS011;12083;52.098;7.582;2022-07-06T11:39:09;2.00;;;0.70;;
23804;SDS011;12083;52.098;7.582;2022-07-06T11:41:35;6.23;;;0.70;;
23804;SDS011;12083;52.098;7.582;2022-07-06T11:44:02;1.20;;;0.80;;
23804;SDS011;12083;52.098;7.582;2022-07-06T11:48:55;1.93;;;0.70;;
23804;SDS011;12083;52.098;7.582;2022-07-06T11:51:24;2.30;;;0.90;;
23804;SDS011;12083;52.098;7.582;2022-07-06T11:53:54;1.07;;;0.70;;
23804;SDS011;12083;52.098;7.582;2022-07-06T11:56:24;2.90;;;0.70;;
23804;SDS011;12083;52.098;7.582;2022-07-06T11:58:53;3.73;;;0.80;;
23804;SDS011;12083;52.098;7.582;2022-07-06T12:01:21;6.50;;;1.03;;
23804;SDS011;12083;52.098;7.582;2022-07-06T12:03:52;1.03;;;0.60;;
23804;SDS011;12083;52.098;7.582;2022-07-06T12:06:21;2.90;;;0.70;;
23804;SDS011;12083;52.098;7.582;2022-07-06T12:08:49;3.67;;;0.70;;
23804;SDS011;12083;52.098;7.582;2022-07-06T12:11:35;3.53;;;0.70;;
23804;SDS011;12083;52.098;7.582;2022-07-06T12:14:02;5.33;;;0.80;;
23804;SDS011;12083;52.098;7.582;2022-07-06T12:16:38;5.10;;;0.70;;
23804;SDS011;12083;52.098;7.582;2022-07-06T12:19:04;0.90;;;0.60;;
23804;SDS011;12083;52.098;7.582;2022-07-06T12:21:31;4.80;;;0.80;;
23804;SDS011;12083;52.098;7.582;2022-07-06T12:23:59;2.73;;;0.77;;
23804;SDS011;12083;52.098;7.582;2022-07-06T12:26:26;2.00;;;0.60;;
23804;SDS011;12083;52.098;7.582;2022-07-06T12:29:11;0.97;;;0.80;;
23804;SDS011;12083;52.098;7.582;2022-07-06T12:31:41;5.20;;;0.70;;
23804;SDS011;12083;52.098;7.582;2022-07-06T12:34:14;5.47;;;1.00;;
23804;SDS011;12083;52.098;7.582;2022-07-06T12:36:50;2.37;;;0.60;;
23804;SDS011;12083;52.098;7.582;2022-07-06T12:39:17;1.63;;;0.60;;
23804;SDS011;12083;52.098;7.582;2022-07-06T12:41:48;1.87;;;0.80;;
23804;SDS011;12083;52.098;7.582;2022-07-06T12:44:15;2.60;;;0.60;;
23804;SDS011;12083;52.098;7.582;2022-07-06T12:46:43;2.30;;;0.60;;
23804;SDS011;12083;52.098;7.582;2022-07-06T12:52:18;2.10;;;1.00;;
23804;SDS011;12083;52.098;7.582;2022-07-06T12:57:20;2.60;;;1.00;;
23804;SDS011;12083;52.098;7.582;2022-07-06T12:59:54;2.97;;;0.80;;
23804;SDS011;12083;52.098;7.582;2022-07-06T13:04:56;2.53;;;0.60;;
23804;SDS011;12083;52.098;7.582;2022-07-06T13:07:24;1.63;;;0.70;;
23804;SDS011;12083;52.098;7.582;2022-07-06T13:09:51;1.37;;;0.87;;
23804;SDS011;12083;52.098;7.582;2022-07-06T13:12:17;4.20;;;0.70;;
23804;SDS011;12083;52.098;7.582;2022-07-06T13:14:43;2.87;;;0.60;;
23804;SDS011;12083;52.098;7.582;2022-07-06T13:17:08;3.33;;;0.90;;
23804;SDS011;12083;52.098;7.582;2022-07-06T13:19:34;2.30;;;0.60;;
23804;SDS011;12083;52.098;7.582;2022-07-06T13:21:59;3.87;;;0.90;;
23804;SDS011;12083;52.098;7.582;2022-07-06T13:24:25;2.70;;;0.60;;
23804;SDS011;12083;52.098;7.582;2022-07-06T13:26:53;3.07;;;0.70;;
23804;SDS011;12083;52.098;7.582;2022-07-06T13:29:19;3.50;;;0.90;;
23804;SDS011;12083;52.098;7.582;2022-07-06T13:31:45;4.30;;;0.70;;
23804;SDS011;12083;52.098;7.582;2022-07-06T13:34:10;2.83;;;0.67;;
23804;SDS011;12083;52.098;7.582;2022-07-06T13:36:38;1.43;;;0.70;;
23804;SDS011;12083;52.098;7.582;2022-07-06T13:39:04;0.80;;;0.60;;
23804;SDS011;12083;52.098;7.582;2022-07-06T13:41:30;3.83;;;0.70;;
23804;SDS011;12083;52.098;7.582;2022-07-06T13:43:55;5.03;;;0.60;;
23804;SDS011;12083;52.098;7.582;2022-07-06T13:46:21;1.93;;;0.80;;
23804;SDS011;12083;52.098;7.582;2022-07-06T13:48:47;4.20;;;0.87;;
23804;SDS011;12083;52.098;7.582;2022-07-06T13:51:13;5.17;;;0.90;;
23804;SDS011;12083;52.098;7.582;2022-07-06T13:53:39;2.30;;;0.70;;
23804;SDS011;12083;52.098;7.582;2022-07-06T13:56:04;2.27;;;0.70;;
23804;SDS011;12083;52.098;7.582;2022-07-06T13:58:30;3.37;;;1.00;;
23804;SDS011;12083;52.098;7.582;2022-07-06T14:00:56;4.27;;;0.60;;
23804;SDS011;12083;52.098;7.582;2022-07-06T14:03:21;6.10;;;0.70;;
23804;SDS011;12083;52.098;7.582;2022-07-06T14:05:53;2.77;;;0.90;;
23804;SDS011;12083;52.098;7.582;2022-07-06T14:08:19;1.63;;;0.90;;
23804;SDS011;12083;52.098;7.582;2022-07-06T14:10:45;1.87;;;0.63;;
23804;SDS011;12083;52.098;7.582;2022-07-06T14:13:11;1.37;;;0.77;;
23804;SDS011;12083;52.098;7.582;2022-07-06T14:15:36;3.23;;;0.60;;
23804;SDS011;12083;52.098;7.582;2022-07-06T14:18:02;1.37;;;0.60;;
23804;SDS011;12083;52.098;7.582;2022-07-06T14:20:28;5.30;;;0.70;;
23804;SDS011;12083;52.098;7.582;2022-07-06T14:22:53;0.73;;;0.60;;
23804;SDS011;12083;52.098;7.582;2022-07-06T14:25:19;4.00;;;0.73;;
23804;SDS011;12083;52.098;7.582;2022-07-06T14:27:45;1.73;;;0.67;;
23804;SDS011;12083;52.098;7.582;2022-07-06T14:30:10;6.47;;;1.00;;
23804;SDS011;12083;52.098;7.582;2022-07-06T14:32:36;2.30;;;0.53;;
23804;SDS011;12083;52.098;7.582;2022-07-06T14:35:02;8.10;;;0.60;;
23804;SDS011;12083;52.098;7.582;2022-07-06T14:37:27;6.03;;;0.97;;
23804;SDS011;12083;52.098;7.582;2022-07-06T14:39:53;2.53;;;0.63;;
23804;SDS011;12083;52.098;7.582;2022-07-06T14:42:19;4.57;;;0.70;;
23804;SDS011;12083;52.098;7.582;2022-07-06T14:44:45;1.33;;;0.60;;
23804;SDS011;12083;52.098;7.582;2022-07-06T14:47:10;2.43;;;0.70;;
23804;SDS011;12083;52.098;7.582;2022-07-06T14:49:36;1.73;;;0.60;;
23804;SDS011;12083;52.098;7.582;2022-07-06T14:52:02;1.90;;;0.60;;
23804;SDS011;12083;52.098;7.582;2022-07-06T14:54:28;2.33;;;0.53;;
23804;SDS011;12083;52.098;7.582;2022-07-06T14:56:54;4.83;;;0.83;;
23804;SDS011;12083;52.098;7.582;2022-07-06T14:59:19;2.10;;;0.60;;
23804;SDS011;12083;52.098;7.582;2022-07-06T15:01:45;3.70;;;0.60;;
23804;SDS011;12083;52.098;7.582;2022-07-06T15:04:11;1.33;;;0.90;;
23804;SDS011;12083;52.098;7.582;2022-07-06T15:06:37;5.47;;;0.57;;
23804;SDS011;12083;52.098;7.582;2022-07-06T15:09:03;1.03;;;0.50;;
23804;SDS011;12083;52.098;7.582;2022-07-06T15:11:30;2.17;;;0.50;;
23804;SDS011;12083;52.098;7.582;2022-07-06T15:13:56;5.30;;;0.97;;
23804;SDS011;12083;52.098;7.582;2022-07-06T15:16:21;1.33;;;0.77;;
23804;SDS011;12083;52.098;7.582;2022-07-06T15:18:47;1.53;;;0.57;;
23804;SDS011;12083;52.098;7.582;2022-07-06T15:21:13;9.70;;;0.60;;
23804;SDS011;12083;52.098;7.582;2022-07-06T15:23:38;0.70;;;0.50;;
23804;SDS011;12083;52.098;7.582;2022-07-06T15:26:04;2.47;;;0.63;;
23804;SDS011;12083;52.098;7.582;2022-07-06T15:28:29;1.50;;;0.60;;
23804;SDS011;12083;52.098;7.582;2022-07-06T15:30:55;3.20;;;0.60;;
23804;SDS011;12083;52.098;7.582;2022-07-06T15:33:21;7.90;;;0.70;;
23804;SDS011;12083;52.098;7.582;2022-07-06T15:35:48;2.97;;;0.63;;
23804;SDS011;12083;52.098;7.582;2022-07-06T15:38:13;2.17;;;0.70;;
23804;SDS011;12083;52.098;7.582;2022-07-06T15:40:39;1.10;;;0.60;;
23804;SDS011;12083;52.098;7.582;2022-07-06T15:43:10;1.57;;;0.70;;
23804;SDS011;12083;52.098;7.582;2022-07-06T15:45:36;3.30;;;1.00;;
23804;SDS011;12083;52.098;7.582;2022-07-06T15:48:03;3.53;;;0.90;;
23804;SDS011;12083;52.098;7.582;2022-07-06T15:50:29;2.23;;;0.50;;
23804;SDS011;12083;52.098;7.582;2022-07-06T15:52:54;1.70;;;0.73;;
23804;SDS011;12083;52.098;7.582;2022-07-06T15:55:20;2.50;;;0.77;;
23804;SDS011;12083;52.098;7.582;2022-07-06T15:57:46;1.23;;;0.97;;
23804;SDS011;12083;52.098;7.582;2022-07-06T16:00:13;3.33;;;0.70;;
23804;SDS011;12083;52.098;7.582;2022-07-06T16:02:39;4.13;;;0.70;;
23804;SDS011;12083;52.098;7.582;2022-07-06T16:05:05;3.23;;;0.90;;
23804;SDS011;12083;52.098;7.582;2022-07-06T16:07:32;4.73;;;0.60;;
23804;SDS011;12083;52.098;7.582;2022-07-06T16:09:57;3.00;;;0.67;;
23804;SDS011;12083;52.098;7.582;2022-07-06T16:12:24;8.37;;;0.70;;
23804;SDS011;12083;52.098;7.582;2022-07-06T16:14:50;3.20;;;0.60;;
23804;SDS011;12083;52.098;7.582;2022-07-06T16:17:16;2.30;;;0.80;;
23804;SDS011;12083;52.098;7.582;2022-07-06T16:19:41;1.70;;;0.70;;